createdAt,value
2023-04-10T00:01:57.471Z,20.55
2023-04-10T00:07:01.730Z,21.10
2023-04-10T00:12:04.590Z,22.08
2023-04-10T00:17:07.906Z,21.60
2023-04-10T00:22:12.052Z,21.20
2023-04-10T00:27:14.759Z,22.02
2023-04-10T00:32:17.490Z,22.80
2023-04-10T00:37:21.744Z,21.70
2023-04-10T00:42:24.610Z,21.40
2023-04-10T00:47:28.348Z,21.40
2023-04-10T00:52:33.740Z,21.55
2023-04-10T00:57:36.943Z,21.05
2023-04-10T01:02:39.935Z,20.08
2023-04-10T01:07:57.086Z,21.00
2023-04-10T01:13:07.736Z,21.02
2023-04-10T01:18:17.737Z,20.05
2023-04-10T01:23:43.115Z,20.15
2023-04-10T01:29:00.269Z,20.60
2023-04-10T01:34:08.197Z,21.05
2023-04-10T01:39:12.322Z,20.35
2023-04-10T01:44:19.202Z,21.23
2023-04-10T01:49:26.067Z,21.80
2023-04-10T01:54:36.842Z,20.77
2023-04-10T01:59:41.335Z,20.13
2023-04-10T02:04:46.549Z,20.17
2023-04-10T02:09:58.468Z,21.50
2023-04-10T02:15:06.427Z,20.08
2023-04-10T02:20:11.697Z,21.23
2023-04-10T02:25:16.090Z,20.58
2023-04-10T02:30:20.186Z,20.70
2023-04-10T02:35:23.433Z,19.65
2023-04-10T02:40:26.256Z,20.98
2023-04-10T02:45:45.709Z,20.48
2023-04-10T02:50:57.730Z,20.20
2023-04-10T02:56:02.496Z,19.95
2023-04-10T03:01:07.993Z,20.02
2023-04-10T03:06:15.621Z,20.42
2023-04-10T03:11:21.140Z,19.40
2023-04-10T03:16:25.500Z,21.67
2023-04-10T03:21:28.675Z,21.80
2023-04-10T03:26:31.817Z,19.77
2023-04-10T03:31:36.167Z,19.42
2023-04-10T03:36:39.073Z,21.25
2023-04-10T03:41:41.764Z,20.92
2023-04-10T03:46:46.185Z,21.65
2023-04-10T03:51:49.164Z,19.40
2023-04-10T03:56:52.066Z,19.73
2023-04-10T04:01:58.756Z,19.70
2023-04-10T04:07:01.898Z,20.35
2023-04-10T04:12:18.476Z,19.77
2023-04-10T04:17:38.066Z,20.63
2023-04-10T04:22:43.739Z,20.00
2023-04-10T04:28:06.834Z,19.80
2023-04-10T04:33:10.915Z,20.83
2023-04-10T04:38:31.793Z,20.50
2023-04-10T04:44:12.658Z,19.90
2023-04-10T04:49:37.223Z,19.80
2023-04-10T04:55:03.200Z,21.02
2023-04-10T05:00:29.144Z,20.85
2023-04-10T05:05:46.683Z,20.13
2023-04-10T05:11:02.531Z,19.00
2023-04-10T05:16:31.445Z,19.75
2023-04-10T05:21:56.296Z,19.88
2023-04-10T05:26:59.028Z,19.02
2023-04-10T05:32:08.632Z,19.88
2023-04-10T05:37:36.147Z,19.75
2023-04-10T05:42:58.816Z,18.58
2023-04-10T05:48:09.609Z,17.90
2023-04-10T05:53:34.130Z,18.35
2023-04-10T05:58:57.191Z,18.13
2023-04-10T06:04:31.899Z,17.55
2023-04-10T06:09:38.078Z,17.90
2023-04-10T06:14:43.530Z,18.05
2023-04-10T06:19:47.852Z,17.27
2023-04-10T06:24:51.929Z,17.55
2023-04-10T06:29:54.777Z,17.00
2023-04-10T06:34:59.350Z,17.40
2023-04-10T06:40:10.397Z,16.48
2023-04-10T06:45:13.639Z,16.42
2023-04-10T06:50:16.477Z,16.80
2023-04-10T06:55:20.611Z,15.75
2023-04-10T07:00:24.084Z,16.20
2023-04-10T07:05:27.149Z,15.30
2023-04-10T07:10:31.425Z,15.93
2023-04-10T07:15:34.307Z,15.77
2023-04-10T07:20:37.162Z,16.33
2023-04-10T07:25:42.744Z,15.27
2023-04-10T07:30:46.167Z,16.92
2023-04-10T07:35:48.981Z,16.80
2023-04-10T07:40:58.340Z,14.73
2023-04-10T07:46:01.111Z,15.90
2023-04-10T07:51:04.118Z,15.30
2023-04-10T07:56:10.810Z,14.70
2023-04-10T08:01:14.086Z,15.38
2023-04-10T08:06:16.849Z,16.30
2023-04-10T08:11:29.180Z,15.68
2023-04-10T08:16:33.736Z,15.27
2023-04-10T08:21:36.549Z,15.10
2023-04-10T08:26:40.806Z,14.77
2023-04-10T08:31:43.680Z,15.77
2023-04-10T08:36:46.575Z,15.55
2023-04-10T08:41:50.943Z,15.52
2023-04-10T08:46:54.044Z,15.85
2023-04-10T08:51:58.915Z,15.07
2023-04-10T08:57:04.107Z,14.35
2023-04-10T09:02:07.559Z,13.82
2023-04-10T09:07:10.385Z,13.40
2023-04-10T09:12:15.617Z,13.15
2023-04-10T09:17:20.209Z,12.85
2023-04-10T09:22:30.997Z,12.93
2023-04-10T09:27:37.291Z,11.82
2023-04-10T09:32:42.288Z,11.77
2023-04-10T09:37:46.723Z,12.05
2023-04-10T09:42:51.000Z,10.45
2023-04-10T09:48:05.101Z,7.78
2023-04-10T09:53:08.226Z,8.02
2023-04-10T09:58:13.804Z,8.10
2023-04-10T10:03:18.109Z,7.90
2023-04-10T10:08:22.324Z,8.05
2023-04-10T10:13:32.816Z,8.88
2023-04-10T10:18:45.024Z,7.40
2023-04-10T10:23:53.954Z,6.93
2023-04-10T10:29:00.200Z,6.80
2023-04-10T10:34:05.028Z,6.67
2023-04-10T10:39:25.864Z,6.00
2023-04-10T10:44:42.375Z,6.20
2023-04-10T10:49:56.275Z,6.70
2023-04-10T10:55:00.270Z,6.40
2023-04-10T11:00:05.482Z,5.85
2023-04-10T11:05:08.994Z,5.90
2023-04-10T11:10:19.451Z,5.82
2023-04-10T11:15:26.285Z,5.28
2023-04-10T11:20:29.230Z,5.60
2023-04-10T11:25:49.072Z,5.38
2023-04-10T11:30:54.617Z,5.68
2023-04-10T11:35:59.240Z,5.75
2023-04-10T11:41:05.506Z,5.60
2023-04-10T11:46:10.436Z,5.05
2023-04-10T11:51:14.954Z,5.22
2023-04-10T11:56:19.552Z,4.97
2023-04-10T12:01:24.538Z,5.28
2023-04-10T12:06:28.093Z,4.78
2023-04-10T12:11:31.666Z,4.65
2023-04-10T12:16:36.252Z,4.25
2023-04-10T12:21:41.067Z,4.22
2023-04-10T12:26:49.545Z,4.93
2023-04-10T12:31:53.935Z,4.20
2023-04-10T12:36:58.082Z,3.33
2023-04-10T12:42:14.461Z,3.33
2023-04-10T12:47:18.562Z,4.57
2023-04-10T12:52:24.030Z,3.42
2023-04-10T12:57:28.396Z,3.90
2023-04-10T13:02:33.028Z,3.50
2023-04-10T13:07:36.496Z,3.65
2023-04-10T13:12:40.678Z,3.65
2023-04-10T13:17:47.543Z,3.80
2023-04-10T13:22:53.455Z,4.22
2023-04-10T13:28:00.045Z,3.70
2023-04-10T13:33:04.373Z,4.03
2023-04-10T13:38:07.372Z,3.78
2023-04-10T13:43:10.227Z,3.65
2023-04-10T13:48:17.557Z,3.42
2023-04-10T13:53:21.706Z,4.03
2023-04-10T13:58:26.759Z,3.95
2023-04-10T14:03:31.109Z,4.13
2023-04-10T14:08:33.965Z,3.75
2023-04-10T14:13:37.075Z,4.22
2023-04-10T14:18:41.600Z,4.63
2023-04-10T14:23:47.814Z,5.00
2023-04-10T14:28:50.804Z,4.65
2023-04-10T14:33:55.317Z,4.30
2023-04-10T14:38:58.240Z,4.90
2023-04-10T14:44:01.062Z,5.05
2023-04-10T14:49:05.340Z,5.43
2023-04-10T14:54:11.446Z,5.75
2023-04-10T14:59:14.816Z,5.38
2023-04-10T15:04:22.640Z,4.93
2023-04-10T15:09:25.806Z,5.00
2023-04-10T15:14:28.878Z,4.88
2023-04-10T15:19:33.263Z,5.32
2023-04-10T15:24:46.849Z,5.28
2023-04-10T15:29:50.711Z,5.68
2023-04-10T15:34:56.820Z,4.85
2023-04-10T15:39:59.829Z,3.75
2023-04-10T15:45:06.262Z,3.70
2023-04-10T15:50:14.382Z,4.00
2023-04-10T15:55:18.092Z,3.30
2023-04-10T16:08:19.205Z,3.70
2023-04-10T16:15:03.809Z,3.95
2023-04-10T16:27:08.243Z,3.45
2023-04-10T16:33:03.789Z,3.92
2023-04-10T16:52:12.238Z,3.85
2023-04-10T16:57:14.955Z,4.05
2023-04-10T17:02:20.801Z,4.13
2023-04-10T17:07:25.749Z,4.43
2023-04-10T17:12:28.571Z,4.10
2023-04-10T17:17:33.967Z,4.00
2023-04-10T17:22:39.587Z,4.40
2023-04-10T17:27:42.362Z,4.60
2023-04-10T17:32:45.399Z,4.32
2023-04-10T17:37:49.679Z,4.38
2023-04-10T17:42:52.769Z,4.35
2023-04-10T17:47:55.643Z,5.13
2023-04-10T17:53:00.427Z,4.97
2023-04-10T17:58:03.321Z,4.55
2023-04-10T18:03:09.096Z,4.88
2023-04-10T18:08:13.941Z,4.45
2023-04-10T18:13:18.696Z,3.88
2023-04-10T18:18:27.392Z,4.68
2023-04-10T18:45:00.635Z,6.10
2023-04-10T18:57:09.120Z,6.88
2023-04-10T19:02:13.836Z,6.57
2023-04-10T19:07:16.749Z,6.40
2023-04-10T19:12:23.336Z,6.18
2023-04-10T19:17:26.509Z,6.53
2023-04-10T19:22:29.410Z,6.32
2023-04-10T19:27:36.786Z,6.75
2023-04-10T19:32:47.550Z,6.85
2023-04-10T19:37:52.622Z,6.65
2023-04-10T19:42:59.404Z,7.53
2023-04-10T19:48:02.309Z,7.18
2023-04-10T19:53:05.320Z,7.03
2023-04-10T19:58:17.004Z,6.90
2023-04-10T20:03:28.242Z,6.35
2023-04-10T20:08:31.219Z,5.70
2023-04-10T20:13:35.544Z,6.20
2023-04-10T20:18:40.207Z,5.90
2023-04-10T20:23:43.186Z,6.28
2023-04-10T20:28:47.299Z,6.35
2023-04-10T20:33:50.119Z,6.13
2023-04-10T20:38:54.100Z,5.95
2023-04-10T20:43:58.489Z,6.40
2023-04-10T20:49:01.330Z,6.28
2023-04-10T20:54:04.505Z,5.82
2023-04-10T20:59:08.719Z,5.30
2023-04-10T21:04:11.631Z,6.00
2023-04-10T21:09:14.593Z,5.07
2023-04-10T21:14:18.734Z,5.60
2023-04-10T21:19:21.465Z,5.57
2023-04-10T21:24:24.222Z,5.72
2023-04-10T21:29:28.407Z,5.22
2023-04-10T21:34:31.831Z,5.10
2023-04-10T21:39:40.187Z,3.50
2023-04-10T21:44:44.249Z,3.40
2023-04-10T21:49:49.123Z,3.30
2023-04-10T21:54:51.946Z,2.83
2023-04-10T21:59:56.039Z,3.10
2023-04-10T22:04:58.788Z,3.28
2023-04-10T22:10:01.536Z,3.80
2023-04-10T22:15:07.739Z,3.65
2023-04-10T22:20:11.455Z,3.40
2023-04-10T22:25:14.227Z,3.42
2023-04-10T22:30:18.756Z,3.72
2023-04-10T22:35:22.039Z,3.60
2023-04-10T22:40:24.952Z,4.40
2023-04-10T22:45:29.171Z,3.92
2023-04-10T22:50:32.167Z,5.05
2023-04-10T22:55:34.900Z,4.20
2023-04-10T23:00:39.106Z,4.30
2023-04-10T23:05:41.921Z,4.50
2023-04-10T23:10:45.035Z,4.80
2023-04-10T23:15:51.085Z,6.75
2023-04-10T23:20:53.952Z,4.40
2023-04-10T23:26:00.276Z,4.40
2023-04-10T23:31:04.490Z,4.03
2023-04-10T23:36:07.748Z,3.78
2023-04-10T23:41:10.501Z,3.05
2023-04-10T23:46:14.798Z,3.35
2023-04-10T23:51:17.577Z,3.13
2023-04-10T23:56:27.931Z,3.10
